Terminal Aerodrome Forecast
Issued by NWS Mobile, AL

Home | Current Version | Previous Version | Text Only | Print | Product List | Glossary On
Versions: 1 2 3 4 5 6 7 8 9 10 11 12 13 14 15 16 17 18 19 20 21 22 23 24 25 26 27 28 29 30 31 32 33 34 35 36 37 38 39 40 41 42 43 44 45 46 47 48 49 50
000
FTUS44 KMOB 101726
TAFMOB
TAF
KMOB 101726Z 1018/1118 24009KT P6SM BKN022 BKN040
     FM101830 01016KT P6SM VCSH OVC013
     FM110300 01016G24KT P6SM OVC015 PROB30 1103/1106 4SM -SHRA
      OVC008
     FM110600 03016G26KT P6SM -SHRA OVC035
     FM111200 02013G22KT P6SM OVC020 PROB30 1112/1115 4SM -SHRA
      OVC015=

USA.gov is the U.S. government's official web portal to all federal, state and local government web resources and services.